Time;durP1;ratioP1;P1;durP2;ratioP2;P2;SDS_P1;SDS_P2;PMS_P1;PMS_P2;Temp;Humidity;BMP_temperature;BMP_pressure;BME280_temperature;BME280_humidity;BME280_pressure;Samples;Min_cycle;Max_cycle;Signal;HPM_P1;HPM_P2
2022/06/09 00:01:16;;;;;;;2.20;2.03;;;15.40;99.90;;;;;;5104583;28;20225;-75
2022/06/09 00:03:59;;;;;;;2.33;2.00;;;15.40;99.90;;;;;;5098543;28;20649;-74
2022/06/09 00:06:30;;;;;;;2.08;1.73;;;15.40;99.90;;;;;;5088846;28;20210;-75
2022/06/09 00:08:59;;;;;;;2.55;2.15;;;15.30;99.90;;;;;;5093190;28;20229;-75
2022/06/09 00:11:26;;;;;;;3.63;2.38;;;15.40;99.90;;;;;;5106243;28;20202;-75
2022/06/09 00:13:52;;;;;;;2.30;1.90;;;15.40;99.90;;;;;;5094703;28;20175;-75
2022/06/09 00:16:19;;;;;;;2.45;2.25;;;15.40;99.90;;;;;;5094533;28;20179;-75
2022/06/09 00:18:44;;;;;;;2.10;2.00;;;15.40;99.90;;;;;;5090193;28;20173;-75
2022/06/09 00:21:11;;;;;;;2.10;2.00;;;15.40;99.90;;;;;;5098281;28;20266;-77
2022/06/09 00:23:37;;;;;;;2.58;2.38;;;15.40;99.90;;;;;;5084736;28;20182;-75
2022/06/09 00:26:03;;;;;;;2.05;1.92;;;15.40;99.90;;;;;;5098337;28;20175;-75
2022/06/09 00:28:29;;;;;;;4.40;2.13;;;15.40;99.90;;;;;;5100135;28;20186;-75
2022/06/09 00:30:54;;;;;;;3.25;2.40;;;15.40;99.90;;;;;;5096317;28;20715;-74
2022/06/09 00:33:20;;;;;;;2.72;2.50;;;15.50;99.90;;;;;;5105936;28;20569;-75
2022/06/09 00:35:46;;;;;;;2.50;2.08;;;15.60;99.90;;;;;;5101205;28;20196;-75
2022/06/09 00:38:12;;;;;;;3.50;2.33;;;15.50;99.90;;;;;;5104080;28;20185;-76
2022/06/09 00:40:38;;;;;;;2.63;2.42;;;15.40;99.90;;;;;;5087791;28;20230;-75
2022/06/09 00:43:05;;;;;;;3.63;2.40;;;15.50;99.90;;;;;;5095205;28;20178;-74
2022/06/09 00:45:42;;;;;;;2.78;2.20;;;15.50;99.90;;;;;;5092319;28;20193;-74
2022/06/09 00:48:08;;;;;;;2.60;2.40;;;15.40;99.90;;;;;;5091895;28;20637;-76
2022/06/09 00:50:36;;;;;;;2.08;1.80;;;15.50;99.90;;;;;;5092621;28;20210;-75
2022/06/09 00:53:14;;;;;;;3.47;2.65;;;15.40;99.90;;;;;;5095534;28;20226;-74
2022/06/09 00:55:42;;;;;;;2.33;1.67;;;15.50;99.90;;;;;;5093978;28;20175;-75
2022/06/09 00:58:18;;;;;;;2.47;2.20;;;15.40;99.90;;;;;;5101194;28;20175;-74
2022/06/09 01:00:56;;;;;;;3.03;2.47;;;15.40;99.90;;;;;;5098662;28;20732;-74
2022/06/09 01:03:30;;;;;;;2.58;2.38;;;15.40;99.90;;;;;;5087810;28;20193;-74
2022/06/09 01:06:04;;;;;;;2.83;2.63;;;15.40;99.90;;;;;;5093115;28;20179;-74
2022/06/09 01:08:32;;;;;;;3.83;2.83;;;15.40;99.90;;;;;;5089786;28;20185;-74
2022/06/09 01:10:58;;;;;;;3.17;2.47;;;15.40;99.90;;;;;;5098629;28;20214;-75
2022/06/09 01:13:24;;;;;;;3.17;2.33;;;15.30;99.90;;;;;;5100164;28;20547;-75
2022/06/09 01:16:01;;;;;;;3.47;2.33;;;15.30;99.90;;;;;;5098233;28;20179;-74
2022/06/09 01:18:44;;;;;;;2.30;2.05;;;15.20;99.90;;;;;;5087823;28;20210;-75
2022/06/09 01:21:41;;;;;;;3.42;2.50;;;15.20;99.90;;;;;;5093882;28;20178;-75
2022/06/09 01:24:43;;;;;;;3.25;2.83;;;15.20;99.90;;;;;;5098461;28;20193;-75
2022/06/09 01:27:23;;;;;;;2.88;2.60;;;15.30;99.90;;;;;;5085087;28;20217;-75
2022/06/09 01:30:03;;;;;;;2.88;2.67;;;15.20;99.90;;;;;;5087188;28;20227;-75
2022/06/09 01:32:44;;;;;;;4.60;2.30;;;15.30;99.90;;;;;;5100121;28;20166;-77
2022/06/09 01:35:23;;;;;;;2.28;2.17;;;15.20;99.90;;;;;;5102944;28;20173;-76
2022/06/09 01:37:54;;;;;;;4.55;3.15;;;15.20;99.90;;;;;;5096923;28;20254;-76
2022/06/09 01:40:20;;;;;;;3.78;2.90;;;15.10;99.90;;;;;;5087992;28;20598;-75
2022/06/09 01:42:50;;;;;;;4.00;2.75;;;15.20;99.90;;;;;;5096238;28;20204;-75
2022/06/09 01:45:19;;;;;;;3.50;3.20;;;15.20;99.90;;;;;;5093325;28;20213;-76
2022/06/09 01:48:28;;;;;;;2.95;2.70;;;15.10;99.90;;;;;;5111251;28;20181;-76
2022/06/09 01:51:11;;;;;;;4.22;3.22;;;15.10;99.90;;;;;;5028970;28;20248;-74
2022/06/09 01:54:03;;;;;;;3.30;2.78;;;15.10;99.90;;;;;;5086225;28;20222;-74
2022/06/09 01:56:51;;;;;;;3.05;2.80;;;15.00;99.90;;;;;;5088218;28;20198;-75
2022/06/09 01:59:17;;;;;;;6.13;3.53;;;15.10;99.90;;;;;;5105355;28;20185;-76
2022/06/09 02:01:47;;;;;;;3.40;3.08;;;15.00;99.90;;;;;;5082360;28;20259;-76
2022/06/09 02:04:22;;;;;;;3.63;3.38;;;14.90;99.90;;;;;;5092234;28;20699;-76
2022/06/09 02:06:50;;;;;;;3.60;3.30;;;14.90;99.90;;;;;;5097489;28;20182;-76
2022/06/09 02:09:16;;;;;;;7.47;4.20;;;14.80;99.90;;;;;;5101567;28;20206;-76
2022/06/09 02:11:51;;;;;;;5.70;3.30;;;14.90;99.90;;;;;;5093908;28;20232;-75
2022/06/09 02:14:19;;;;;;;3.58;3.28;;;14.90;99.90;;;;;;5095145;28;20173;-75
2022/06/09 02:16:45;;;;;;;5.00;3.65;;;14.90;99.90;;;;;;5086224;28;20188;-76
2022/06/09 02:19:11;;;;;;;5.13;4.18;;;14.90;99.90;;;;;;5097165;28;20634;-76
2022/06/09 02:21:38;;;;;;;4.95;3.80;;;14.90;99.90;;;;;;5095145;28;20202;-76
2022/06/09 02:24:04;;;;;;;5.20;4.55;;;14.90;99.90;;;;;;5092196;28;20166;-76
2022/06/09 02:26:30;;;;;;;5.53;5.13;;;14.80;99.90;;;;;;5091759;28;20684;-77
2022/06/09 02:28:56;;;;;;;6.93;4.40;;;14.80;99.90;;;;;;5099194;28;20652;-76
2022/06/09 02:31:23;;;;;;;6.82;5.20;;;14.90;99.90;;;;;;5088303;28;20209;-75
2022/06/09 02:33:49;;;;;;;8.02;5.00;;;14.90;99.90;;;;;;5090653;28;20206;-75
2022/06/09 02:36:16;;;;;;;4.85;4.45;;;14.80;99.90;;;;;;5089472;28;20197;-79
2022/06/09 02:38:42;;;;;;;6.18;5.07;;;14.80;99.90;;;;;;5090821;28;20174;-75
2022/06/09 02:41:07;;;;;;;6.45;4.70;;;14.80;99.90;;;;;;5087982;28;20199;-76
2022/06/09 02:43:34;;;;;;;5.25;4.75;;;14.90;99.90;;;;;;5088677;28;20183;-75
2022/06/09 02:45:59;;;;;;;5.85;4.63;;;14.80;99.90;;;;;;5089977;28;20222;-79
2022/06/09 02:48:25;;;;;;;5.22;4.82;;;14.70;99.90;;;;;;5099992;28;20208;-78
2022/06/09 02:50:52;;;;;;;4.70;4.20;;;14.60;99.90;;;;;;5092105;28;20292;-77
2022/06/09 02:53:19;;;;;;;7.05;3.83;;;14.60;99.90;;;;;;5090683;28;20209;-77
2022/06/09 02:55:45;;;;;;;3.22;2.90;;;14.50;99.90;;;;;;5087745;28;20179;-77
2022/06/09 02:58:11;;;;;;;2.78;2.55;;;14.50;99.90;;;;;;5093498;28;20186;-76
2022/06/09 03:00:37;;;;;;;3.38;2.30;;;14.40;99.90;;;;;;5087177;28;20674;-76
2022/06/09 03:03:06;;;;;;;2.35;2.15;;;14.40;99.90;;;;;;5086633;28;20266;-75
2022/06/09 03:05:34;;;;;;;2.30;2.10;;;14.50;99.90;;;;;;5077282;28;21075;-74
2022/06/09 03:08:00;;;;;;;1.80;1.67;;;14.40;99.90;;;;;;5079742;28;20696;-74
2022/06/09 03:10:26;;;;;;;1.60;1.60;;;14.40;99.90;;;;;;5085245;28;20253;-74
2022/06/09 03:12:52;;;;;;;1.80;1.70;;;14.30;99.90;;;;;;5081866;28;20700;-74
2022/06/09 03:15:22;;;;;;;1.45;1.40;;;14.20;99.90;;;;;;5079822;28;20190;-75
2022/06/09 03:17:49;;;;;;;2.65;1.60;;;14.20;99.90;;;;;;5091207;28;20188;-75
2022/06/09 03:20:24;;;;;;;1.48;1.38;;;14.10;99.90;;;;;;5090758;28;20634;-76
2022/06/09 03:22:49;;;;;;;1.73;1.63;;;14.10;99.90;;;;;;5089461;28;20186;-76
2022/06/09 03:25:15;;;;;;;2.47;1.70;;;14.00;99.90;;;;;;5091243;28;20653;-76
2022/06/09 03:27:41;;;;;;;1.98;1.60;;;14.00;99.90;;;;;;5085228;28;20191;-75
2022/06/09 03:30:08;;;;;;;1.92;1.60;;;14.10;99.90;;;;;;5087564;28;20191;-76
2022/06/09 03:32:33;;;;;;;1.48;1.42;;;14.10;99.90;;;;;;5089719;28;20197;-76
2022/06/09 03:34:59;;;;;;;1.52;1.50;;;14.20;99.90;;;;;;5091847;28;20177;-75
2022/06/09 03:37:25;;;;;;;1.80;1.70;;;14.20;99.90;;;;;;5087412;28;20180;-75
2022/06/09 03:39:51;;;;;;;1.73;1.73;;;14.10;99.90;;;;;;5092673;28;20227;-75
2022/06/09 03:42:16;;;;;;;2.03;1.88;;;14.20;99.90;;;;;;5090117;28;20204;-75
2022/06/09 03:44:42;;;;;;;1.85;1.75;;;14.20;99.90;;;;;;5093532;28;20555;-76
2022/06/09 03:47:10;;;;;;;2.35;1.80;;;14.20;99.90;;;;;;5087633;28;20183;-75
2022/06/09 03:49:36;;;;;;;2.17;2.08;;;14.20;99.90;;;;;;5088173;28;20202;-75
2022/06/09 03:52:02;;;;;;;2.15;2.05;;;14.20;99.90;;;;;;5091093;28;20229;-74
2022/06/09 03:54:28;;;;;;;2.38;2.17;;;14.30;99.90;;;;;;5089756;28;20215;-77
2022/06/09 03:56:53;;;;;;;2.53;2.35;;;14.30;99.90;;;;;;5092468;28;20208;-75
2022/06/09 03:59:19;;;;;;;2.63;2.42;;;14.40;99.90;;;;;;5090951;28;20183;-75
2022/06/09 04:01:45;;;;;;;3.20;2.85;;;14.40;99.90;;;;;;5092735;28;20199;-74
2022/06/09 04:04:11;;;;;;;2.65;2.38;;;14.40;99.90;;;;;;5088282;28;20183;-75
2022/06/09 04:06:36;;;;;;;2.58;2.47;;;14.40;99.90;;;;;;5090330;28;20266;-75
2022/06/09 04:09:03;;;;;;;2.70;2.50;;;14.20;99.90;;;;;;5091839;28;20203;-75
2022/06/09 04:11:29;;;;;;;2.78;2.58;;;14.20;99.90;;;;;;5086393;28;20210;-74
2022/06/09 04:13:55;;;;;;;3.05;2.85;;;14.20;99.90;;;;;;5089095;28;20174;-74
2022/06/09 04:16:31;;;;;;;3.53;3.30;;;14.30;99.90;;;;;;5086734;28;20250;-75
2022/06/09 04:19:00;;;;;;;3.45;3.25;;;14.50;99.90;;;;;;5088639;28;20536;-74
2022/06/09 04:21:27;;;;;;;3.20;3.00;;;14.50;99.90;;;;;;5085682;28;20195;-75
2022/06/09 04:23:54;;;;;;;3.83;3.40;;;14.50;99.90;;;;;;5090677;28;20293;-75
2022/06/09 04:26:23;;;;;;;3.90;3.60;;;14.70;99.90;;;;;;5091795;28;20178;-75
2022/06/09 04:28:49;;;;;;;4.20;3.90;;;14.70;99.90;;;;;;5088006;28;20191;-74
2022/06/09 04:31:15;;;;;;;5.47;3.38;;;14.80;99.90;;;;;;5091279;28;20197;-74
2022/06/09 04:33:41;;;;;;;4.25;3.95;;;14.70;99.90;;;;;;5092256;28;20548;-74
2022/06/09 04:36:09;;;;;;;3.72;3.53;;;14.80;99.90;;;;;;5092958;28;20639;-74
2022/06/09 04:38:35;;;;;;;4.47;4.10;;;14.80;99.90;;;;;;5088643;28;20175;-74
2022/06/09 04:41:03;;;;;;;4.53;4.18;;;14.80;99.90;;;;;;5094146;28;20209;-74
2022/06/09 04:43:29;;;;;;;4.35;4.00;;;14.80;99.90;;;;;;5094044;28;20279;-74
2022/06/09 04:45:54;;;;;;;4.40;4.10;;;14.80;99.90;;;;;;5090712;28;20224;-74
2022/06/09 04:48:20;;;;;;;4.72;4.32;;;14.80;99.90;;;;;;5086161;28;20191;-74
2022/06/09 04:50:46;;;;;;;4.95;4.43;;;14.90;99.90;;;;;;5089047;28;20282;-75
2022/06/09 04:53:11;;;;;;;4.07;3.78;;;14.90;99.90;;;;;;5089500;28;20583;-75
2022/06/09 04:55:39;;;;;;;4.00;3.80;;;14.90;99.90;;;;;;5086121;28;20186;-74
2022/06/09 04:58:05;;;;;;;4.38;4.07;;;14.90;99.90;;;;;;5092865;28;20167;-75
2022/06/09 05:00:32;;;;;;;4.13;3.92;;;14.90;99.90;;;;;;5090833;28;20734;-75
2022/06/09 05:02:59;;;;;;;4.45;4.18;;;15.00;99.90;;;;;;5086828;28;20181;-75
2022/06/09 05:05:35;;;;;;;4.15;3.75;;;15.10;99.90;;;;;;5078545;28;20190;-73
2022/06/09 05:08:01;;;;;;;4.05;3.75;;;15.30;99.90;;;;;;5079985;28;20217;-74
2022/06/09 05:10:28;;;;;;;4.28;3.95;;;15.40;99.90;;;;;;5080031;28;20259;-74
2022/06/09 05:12:55;;;;;;;3.85;3.45;;;15.50;99.90;;;;;;5083486;28;20178;-75
2022/06/09 05:15:21;;;;;;;3.47;3.28;;;15.50;99.90;;;;;;5080728;28;20183;-74
2022/06/09 05:17:47;;;;;;;3.78;3.55;;;15.40;99.90;;;;;;5086402;28;20198;-74
2022/06/09 05:20:17;;;;;;;4.18;3.88;;;15.50;99.90;;;;;;5076824;28;20183;-73
2022/06/09 05:22:43;;;;;;;3.83;3.53;;;15.50;99.90;;;;;;5082153;28;20183;-73
2022/06/09 05:25:10;;;;;;;3.10;2.90;;;15.40;99.90;;;;;;5080178;28;20188;-74
2022/06/09 05:27:36;;;;;;;2.88;2.67;;;15.60;99.90;;;;;;5088284;28;20185;-73
2022/06/09 05:30:17;;;;;;;3.97;3.75;;;15.70;99.90;;;;;;5098035;28;20206;-77
2022/06/09 05:32:43;;;;;;;7.05;2.95;;;15.90;99.90;;;;;;5104722;28;20179;-79
2022/06/09 05:35:12;;;;;;;2.95;2.63;;;15.80;99.90;;;;;;5094810;28;20205;-78
2022/06/09 05:46:00;;;;;;;3.20;2.90;;;16.20;99.90;;;;;;5099330;28;20212;-79
2022/06/09 05:48:48;;;;;;;3.05;2.75;;;16.20;99.90;;;;;;5094417;28;20198;-82
2022/06/09 05:51:16;;;;;;;3.15;2.95;;;16.30;99.90;;;;;;5091230;28;20237;-78
2022/06/09 05:53:41;;;;;;;2.97;2.72;;;16.40;99.90;;;;;;5096553;28;20188;-81
2022/06/09 05:56:08;;;;;;;2.72;2.55;;;16.50;99.90;;;;;;5103167;28;20182;-78
2022/06/09 05:58:35;;;;;;;2.35;2.25;;;16.50;99.90;;;;;;5095281;28;20690;-78
2022/06/09 06:01:13;;;;;;;3.53;1.80;;;16.70;99.90;;;;;;5104835;28;20213;-76
2022/06/09 06:03:41;;;;;;;2.65;2.50;;;17.00;99.90;;;;;;5096498;28;20174;-81
2022/06/09 06:08:51;;;;;;;2.00;1.90;;;17.20;99.90;;;;;;5091053;28;20424;-73
2022/06/09 06:11:16;;;;;;;1.88;1.83;;;17.20;99.90;;;;;;5089160;28;20293;-73
2022/06/09 06:13:43;;;;;;;2.38;1.90;;;17.30;99.90;;;;;;5082245;28;20171;-73
2022/06/09 06:16:09;;;;;;;2.17;2.08;;;17.40;99.90;;;;;;5083460;28;20175;-73
2022/06/09 06:18:35;;;;;;;4.85;2.83;;;17.50;99.90;;;;;;5087200;28;20182;-73
2022/06/09 06:21:01;;;;;;;2.80;2.60;;;17.60;99.90;;;;;;5090449;28;20218;-73
2022/06/09 06:23:27;;;;;;;2.42;2.22;;;17.60;99.90;;;;;;5080066;28;20527;-73
2022/06/09 06:25:56;;;;;;;2.45;2.28;;;17.70;99.90;;;;;;5079623;28;20187;-73
2022/06/09 06:28:23;;;;;;;4.50;2.20;;;17.80;99.90;;;;;;5087403;28;20251;-73
2022/06/09 06:30:49;;;;;;;2.97;2.50;;;17.70;99.90;;;;;;5086793;28;20211;-72
2022/06/09 06:33:16;;;;;;;2.30;2.20;;;17.70;99.90;;;;;;5081746;28;20175;-72
2022/06/09 06:35:41;;;;;;;2.13;2.00;;;17.80;99.90;;;;;;5083862;28;20198;-76
2022/06/09 06:38:07;;;;;;;2.53;2.28;;;17.80;99.90;;;;;;5091291;28;20264;-73
2022/06/09 06:40:33;;;;;;;3.08;2.25;;;17.90;99.90;;;;;;5089688;28;20217;-73
2022/06/09 06:42:59;;;;;;;2.08;1.98;;;17.90;99.90;;;;;;5080570;28;20175;-75
2022/06/09 06:45:25;;;;;;;3.03;2.50;;;17.90;99.90;;;;;;5080217;28;20214;-75
2022/06/09 06:47:51;;;;;;;2.25;1.80;;;18.00;99.90;;;;;;5087547;28;20261;-74
2022/06/09 06:50:17;;;;;;;5.25;2.40;;;18.30;99.90;;;;;;5089072;28;20274;-73
2022/06/09 06:52:43;;;;;;;2.78;2.25;;;18.30;99.90;;;;;;5096979;28;20220;-73
2022/06/09 06:55:13;;;;;;;3.33;2.28;;;18.30;99.90;;;;;;5088993;28;20262;-72
2022/06/09 06:57:38;;;;;;;2.50;2.30;;;18.40;99.90;;;;;;5084334;28;20201;-72
2022/06/09 07:00:06;;;;;;;2.13;1.98;;;18.60;99.90;;;;;;5085724;28;20174;-72
2022/06/09 07:02:32;;;;;;;1.95;1.85;;;18.70;99.90;;;;;;5086413;28;20673;-71
2022/06/09 07:04:57;;;;;;;1.52;1.52;;;19.00;99.90;;;;;;5089271;28;20206;-72
2022/06/09 07:07:24;;;;;;;1.67;1.67;;;19.00;99.90;;;;;;5093600;28;20227;-73
2022/06/09 07:09:51;;;;;;;3.33;1.63;;;19.20;99.90;;;;;;5090870;28;20202;-73
2022/06/09 07:12:17;;;;;;;2.63;1.77;;;19.30;99.90;;;;;;5088404;28;20688;-74
2022/06/09 07:14:42;;;;;;;1.80;1.52;;;19.40;99.90;;;;;;5086346;28;20167;-76
2022/06/09 07:17:08;;;;;;;2.38;1.67;;;19.30;99.90;;;;;;5089572;28;20623;-72
2022/06/09 07:19:34;;;;;;;2.10;1.60;;;19.50;99.90;;;;;;5094027;28;20190;-71
2022/06/09 07:21:59;;;;;;;1.60;1.50;;;19.50;99.90;;;;;;5091434;28;20302;-76
2022/06/09 07:24:26;;;;;;;3.42;1.50;;;19.60;99.90;;;;;;5090334;28;20181;-73
2022/06/09 07:26:52;;;;;;;1.40;1.40;;;19.80;99.90;;;;;;5088737;28;20216;-77
2022/06/09 07:29:18;;;;;;;1.30;1.30;;;19.90;99.90;;;;;;5075293;28;20209;-74
2022/06/09 07:31:44;;;;;;;2.78;1.55;;;19.90;99.90;;;;;;5083529;28;20206;-74
2022/06/09 07:34:10;;;;;;;1.60;1.50;;;20.00;99.90;;;;;;5091546;28;20194;-73
2022/06/09 07:36:36;;;;;;;2.30;1.30;;;19.80;99.90;;;;;;5086253;28;20186;-75
2022/06/09 07:39:03;;;;;;;1.38;1.10;;;19.60;99.90;;;;;;5083644;28;20728;-76
2022/06/09 07:41:29;;;;;;;1.63;1.52;;;19.50;99.90;;;;;;5081288;28;20199;-77
2022/06/09 07:43:55;;;;;;;2.53;1.58;;;19.80;99.90;;;;;;5088052;28;20567;-76
2022/06/09 07:46:21;;;;;;;1.75;1.65;;;20.10;99.90;;;;;;5084727;28;20213;-76
2022/06/09 07:48:47;;;;;;;2.83;1.73;;;20.20;99.90;;;;;;5090702;28;20257;-74
2022/06/09 07:51:13;;;;;;;1.92;1.45;;;20.40;99.90;;;;;;5089201;28;20206;-75
2022/06/09 07:53:39;;;;;;;1.20;1.20;;;20.70;99.90;;;;;;5081680;28;20179;-73
2022/06/09 07:56:04;;;;;;;1.52;1.35;;;21.00;99.90;;;;;;5090752;28;20225;-73
2022/06/09 07:58:30;;;;;;;1.38;1.20;;;21.20;99.90;;;;;;5086480;28;20179;-74
2022/06/09 08:00:56;;;;;;;1.67;1.33;;;21.30;99.90;;;;;;5083179;28;20208;-73
2022/06/09 08:03:24;;;;;;;1.40;1.30;;;21.20;99.90;;;;;;5077269;28;20175;-74
2022/06/09 08:05:50;;;;;;;1.55;1.50;;;21.30;99.90;;;;;;5085013;28;20182;-73
2022/06/09 08:08:16;;;;;;;1.15;1.15;;;21.40;99.90;;;;;;5089244;28;20201;-76
2022/06/09 08:10:43;;;;;;;1.40;1.30;;;21.40;99.90;;;;;;5084742;28;20218;-74
2022/06/09 08:13:10;;;;;;;1.83;1.67;;;21.50;99.90;;;;;;5087174;28;20257;-73
2022/06/09 08:15:37;;;;;;;4.53;1.42;;;21.70;99.90;;;;;;5093306;28;20210;-73
2022/06/09 08:18:04;;;;;;;1.45;1.35;;;21.80;99.90;;;;;;5088316;28;20175;-73
2022/06/09 08:20:33;;;;;;;1.80;1.70;;;21.90;99.90;;;;;;5087829;28;20667;-73
2022/06/09 08:23:11;;;;;;;1.83;1.52;;;22.20;99.90;;;;;;5085357;28;20185;-74
2022/06/09 08:25:40;;;;;;;1.30;1.20;;;22.30;99.90;;;;;;5084610;28;20191;-73
2022/06/09 08:28:06;;;;;;;1.38;1.27;;;22.20;99.90;;;;;;5086601;28;20193;-74
2022/06/09 08:30:34;;;;;;;1.50;1.40;;;22.30;99.90;;;;;;5086282;28;20336;-73
2022/06/09 08:32:59;;;;;;;1.63;1.52;;;22.10;99.90;;;;;;5084893;28;20177;-75
2022/06/09 08:35:26;;;;;;;1.35;1.20;;;22.10;99.90;;;;;;5084788;28;20183;-73
2022/06/09 08:37:52;;;;;;;1.70;1.50;;;21.90;99.90;;;;;;5084245;28;20191;-73
2022/06/09 08:40:24;;;;;;;1.83;1.67;;;21.60;99.90;;;;;;5086633;28;20185;-72
2022/06/09 08:42:53;;;;;;;2.30;1.50;;;21.20;99.90;;;;;;5089933;28;20270;-72
2022/06/09 08:45:27;;;;;;;1.85;1.20;;;21.10;99.90;;;;;;5084825;28;20190;-72
2022/06/09 08:47:55;;;;;;;2.53;1.85;;;21.10;99.90;;;;;;5089813;28;20273;-71
2022/06/09 08:50:34;;;;;;;2.05;1.50;;;21.10;99.90;;;;;;5085935;28;20296;-73
2022/06/09 08:53:23;;;;;;;1.98;1.88;;;20.80;99.90;;;;;;5088510;28;20170;-72
2022/06/09 08:55:55;;;;;;;2.28;1.40;;;20.60;99.90;;;;;;5085511;28;20228;-73
2022/06/09 08:58:40;;;;;;;4.00;1.80;;;20.90;99.90;;;;;;5089096;28;20179;-73
2022/06/09 09:01:22;;;;;;;2.03;1.80;;;21.30;99.90;;;;;;5085342;28;20221;-74
2022/06/09 09:04:10;;;;;;;1.67;1.58;;;21.70;99.90;;;;;;5085260;28;20187;-74
2022/06/09 09:06:44;;;;;;;2.05;1.40;;;22.30;99.90;;;;;;5087760;28;20579;-74
2022/06/09 09:09:30;;;;;;;1.95;1.55;;;22.90;99.90;;;;;;5084222;28;20182;-74
2022/06/09 09:12:14;;;;;;;3.75;1.80;;;23.20;99.90;;;;;;5081535;28;20208;-75
2022/06/09 09:14:48;;;;;;;5.50;3.28;;;23.40;99.90;;;;;;5082246;28;20191;-73
2022/06/09 09:17:54;;;;;;;3.38;1.77;;;23.20;99.90;;;;;;5084654;28;20653;-73
2022/06/09 09:20:35;;;;;;;4.10;1.98;;;23.00;99.90;;;;;;5077861;28;20203;-74
2022/06/09 09:23:15;;;;;;;4.43;1.85;;;22.50;99.90;;;;;;5091924;28;20255;-74
2022/06/09 09:25:45;;;;;;;3.33;2.10;;;22.00;99.90;;;;;;5083504;28;20193;-74
2022/06/09 09:28:27;;;;;;;4.72;2.03;;;21.60;99.90;;;;;;5081481;28;20195;-73
2022/06/09 09:31:01;;;;;;;2.80;1.77;;;21.30;99.90;;;;;;5087443;28;20218;-73
2022/06/09 09:33:28;;;;;;;5.57;2.13;;;21.00;99.90;;;;;;5085830;28;20170;-74
2022/06/09 09:36:11;;;;;;;2.17;1.70;;;20.80;99.90;;;;;;5081400;28;20174;-74
2022/06/09 09:38:47;;;;;;;3.10;1.95;;;20.60;99.90;;;;;;5090394;28;20663;-75
2022/06/09 09:41:34;;;;;;;2.65;1.98;;;20.70;99.90;;;;;;5084713;28;20397;-75
2022/06/09 09:44:12;;;;;;;2.20;2.00;;;20.80;99.90;;;;;;5083969;28;20206;-74
2022/06/09 09:46:40;;;;;;;2.95;1.73;;;20.90;99.90;;;;;;5082056;28;20172;-75
2022/06/09 09:49:15;;;;;;;1.90;1.73;;;21.20;99.90;;;;;;5094168;28;20171;-76
2022/06/09 09:51:42;;;;;;;3.38;1.67;;;21.60;99.90;;;;;;5081793;28;20256;-73
2022/06/09 09:54:36;;;;;;;2.17;1.98;;;22.00;99.90;;;;;;5090147;28;20218;-75
2022/06/09 09:57:20;;;;;;;2.15;1.63;;;22.60;99.90;;;;;;5081410;28;20308;-75
2022/06/09 09:59:47;;;;;;;2.97;2.08;;;23.10;99.90;;;;;;5079094;28;20179;-75
2022/06/09 10:08:36;;;;;;;3.10;1.70;;;25.00;99.90;;;;;;5050552;28;20197;-75
2022/06/09 10:11:53;;;;;;;3.22;1.60;;;25.40;99.90;;;;;;5087769;28;20210;-76
2022/06/09 10:13:52;;;;;;;1.77;1.67;;;25.40;99.90;;;;;;5085359;28;20187;-74
2022/06/09 10:16:19;;;;;;;1.58;1.48;;;25.20;99.90;;;;;;5084319;28;20597;-76
2022/06/09 10:18:51;;;;;;;2.45;1.60;;;25.10;99.90;;;;;;5093864;28;20579;-75
2022/06/09 10:21:17;;;;;;;2.83;1.50;;;25.30;99.90;;;;;;5083355;28;20204;-74
2022/06/09 10:23:52;;;;;;;4.65;1.80;;;25.20;99.90;;;;;;5083940;28;20709;-74
2022/06/09 10:26:32;;;;;;;3.20;1.77;;;25.00;99.90;;;;;;5080792;28;20186;-75
2022/06/09 10:29:24;;;;;;;2.75;1.65;;;24.80;99.90;;;;;;5085680;28;20212;-76
2022/06/09 10:31:53;;;;;;;1.42;1.33;;;24.50;99.90;;;;;;5087143;28;20198;-73
2022/06/09 10:34:43;;;;;;;1.77;1.45;;;24.00;99.90;;;;;;5085343;28;20273;-74
2022/06/09 10:37:34;;;;;;;1.40;1.30;;;23.10;99.90;;;;;;5078388;28;20656;-74
2022/06/09 10:40:03;;;;;;;2.17;1.35;;;22.40;99.90;;;;;;5087782;28;20267;-73
2022/06/09 10:43:20;;;;;;;1.77;1.25;;;22.10;99.90;;;;;;5082704;28;20207;-75
2022/06/09 10:45:52;;;;;;;2.78;1.27;;;21.50;99.90;;;;;;5068397;28;20209;-73
2022/06/09 10:55:14;;;;;;;1.63;1.30;;;19.50;99.90;;;;;;5063841;28;20775;-75
2022/06/09 10:58:06;;;;;;;2.25;1.40;;;18.90;99.90;;;;;;5083358;28;20178;-75
2022/06/09 11:00:36;;;;;;;1.65;1.38;;;18.40;99.90;;;;;;5081827;28;20203;-76
2022/06/09 11:03:11;;;;;;;1.63;1.27;;;18.30;99.90;;;;;;5079221;28;20182;-75
2022/06/09 11:06:01;;;;;;;2.33;1.85;;;18.30;99.90;;;;;;5076492;28;20681;-77
2022/06/09 11:08:40;;;;;;;3.35;1.38;;;18.30;99.90;;;;;;5087219;28;20186;-71
2022/06/09 11:11:29;;;;;;;1.58;1.48;;;18.50;99.90;;;;;;5080906;28;20283;-73
2022/06/09 11:14:10;;;;;;;2.53;1.90;;;18.60;99.90;;;;;;5085438;28;20174;-74
2022/06/09 11:17:26;;;;;;;3.40;1.83;;;18.90;99.90;;;;;;5088831;28;20179;-75
2022/06/09 11:20:01;;;;;;;1.67;1.58;;;19.20;99.90;;;;;;5044728;28;20184;-75
2022/06/09 11:22:32;;;;;;;1.60;1.50;;;19.90;99.90;;;;;;5048514;28;20202;-74
2022/06/09 11:25:06;;;;;;;3.67;1.67;;;20.50;99.90;;;;;;5070264;28;20183;-75
2022/06/09 11:27:53;;;;;;;2.35;1.52;;;20.90;99.90;;;;;;5088866;28;20171;-74
2022/06/09 11:30:37;;;;;;;2.38;1.40;;;21.30;99.90;;;;;;5084761;28;20214;-74
2022/06/09 11:33:22;;;;;;;2.22;1.42;;;21.50;99.90;;;;;;5086791;28;20170;-74
2022/06/09 11:36:06;;;;;;;2.58;1.35;;;21.60;99.90;;;;;;5079525;28;20175;-74
2022/06/09 11:38:55;;;;;;;1.98;1.27;;;21.70;99.90;;;;;;5090583;28;20179;-76
2022/06/09 11:41:38;;;;;;;4.63;1.48;;;21.80;99.90;;;;;;5069172;28;20215;-73
2022/06/09 11:44:25;;;;;;;4.18;1.48;;;21.70;99.90;;;;;;5085849;28;20174;-73
2022/06/09 11:46:53;;;;;;;2.40;1.33;;;21.90;99.90;;;;;;5090623;28;20286;-73
2022/06/09 11:49:33;;;;;;;1.52;1.42;;;22.30;99.90;;;;;;5094755;28;20650;-75
2022/06/09 11:52:02;;;;;;;1.85;1.17;;;22.60;99.90;;;;;;5088440;28;20199;-75
2022/06/09 11:54:37;;;;;;;1.17;1.08;;;23.20;99.90;;;;;;5087168;28;20183;-75
2022/06/09 11:57:25;;;;;;;4.43;1.35;;;23.80;99.90;;;;;;5088021;28;20644;-73
2022/06/09 12:00:00;;;;;;;2.65;1.13;;;24.20;99.90;;;;;;5090234;28;20187;-75
2022/06/09 12:02:44;;;;;;;3.10;1.35;;;25.30;99.90;;;;;;5092196;28;20194;-74
2022/06/09 12:05:34;;;;;;;1.02;0.93;;;25.90;99.90;;;;;;5082842;28;20257;-75
2022/06/09 12:08:24;;;;;;;1.33;0.80;;;26.60;94.40;;;;;;5094463;28;20195;-74
2022/06/09 12:11:18;;;;;;;1.27;1.17;;;26.80;91.80;;;;;;5088116;28;20230;-74
2022/06/09 12:14:01;;;;;;;7.22;1.35;;;27.70;89.50;;;;;;5084414;28;20175;-75
2022/06/09 12:16:36;;;;;;;3.05;1.10;;;28.50;87.00;;;;;;5086135;28;20179;-73
2022/06/09 12:19:14;;;;;;;1.05;0.73;;;28.90;85.00;;;;;;5090884;28;20264;-73
2022/06/09 12:21:42;;;;;;;0.43;0.43;;;29.80;75.20;;;;;;5087903;28;20231;-75
2022/06/09 12:24:14;;;;;;;1.00;0.90;;;29.60;71.40;;;;;;5082257;28;20183;-74
2022/06/09 12:26:40;;;;;;;1.08;1.02;;;29.00;74.40;;;;;;5085609;28;20183;-75
2022/06/09 12:29:17;;;;;;;1.60;1.10;;;28.60;74.90;;;;;;5084798;28;20201;-74
2022/06/09 12:32:09;;;;;;;1.58;0.85;;;28.10;75.20;;;;;;5087729;28;20252;-74
2022/06/09 12:34:45;;;;;;;2.55;0.93;;;27.80;75.80;;;;;;5082885;28;20254;-74
2022/06/09 12:37:32;;;;;;;2.67;0.80;;;27.00;77.00;;;;;;5079503;28;20399;-74
2022/06/09 12:40:39;;;;;;;3.05;0.98;;;26.20;80.40;;;;;;5090658;28;20291;-78
2022/06/09 12:43:18;;;;;;;1.17;1.02;;;25.30;85.80;;;;;;5081184;28;20696;-75
2022/06/09 12:46:05;;;;;;;1.88;1.30;;;25.10;87.50;;;;;;5086355;28;20193;-74
2022/06/09 12:48:33;;;;;;;3.08;1.42;;;24.60;88.20;;;;;;5094831;28;20179;-75
2022/06/09 12:51:00;;;;;;;2.58;1.10;;;24.20;90.80;;;;;;5094845;28;20202;-75
2022/06/09 12:53:36;;;;;;;1.73;1.10;;;24.20;92.50;;;;;;5084623;28;20229;-75
2022/06/09 12:56:19;;;;;;;1.55;1.13;;;24.60;91.30;;;;;;5086316;28;20269;-77
2022/06/09 12:58:48;;;;;;;1.55;1.35;;;24.90;91.90;;;;;;5094082;28;20594;-78
2022/06/09 13:01:21;;;;;;;3.83;1.38;;;24.90;91.80;;;;;;5086037;28;20225;-75
2022/06/09 13:04:02;;;;;;;1.75;1.15;;;25.00;91.70;;;;;;5086186;28;20190;-77
2022/06/09 13:06:35;;;;;;;3.22;1.17;;;24.70;91.40;;;;;;5085409;28;20262;-77
2022/06/09 13:09:16;;;;;;;1.55;1.27;;;24.60;91.70;;;;;;5094063;28;20186;-76
2022/06/09 13:14:29;;;;;;;1.00;1.00;;;24.30;92.10;;;;;;5092042;28;20235;-75
2022/06/09 13:16:59;;;;;;;1.35;1.20;;;24.50;91.30;;;;;;5082901;28;20170;-75
2022/06/09 13:19:28;;;;;;;3.88;1.30;;;24.70;90.90;;;;;;5087990;28;20190;-73
2022/06/09 13:21:54;;;;;;;1.85;1.17;;;24.90;91.30;;;;;;5086701;28;20201;-73
2022/06/09 13:24:30;;;;;;;1.45;1.13;;;25.40;89.80;;;;;;5088212;28;20178;-73
2022/06/09 13:26:57;;;;;;;1.77;1.10;;;25.30;90.30;;;;;;5083046;28;20179;-73
2022/06/09 13:29:25;;;;;;;1.10;1.05;;;25.20;89.70;;;;;;5084818;28;20245;-74
2022/06/09 13:32:17;;;;;;;2.03;1.40;;;25.40;90.30;;;;;;5089928;28;20241;-74
2022/06/09 13:34:44;;;;;;;1.50;1.05;;;25.40;90.40;;;;;;5090429;28;20661;-72
2022/06/09 13:37:20;;;;;;;2.85;1.38;;;25.80;90.10;;;;;;5085001;28;20179;-72
2022/06/09 13:40:07;;;;;;;1.77;1.20;;;26.10;90.10;;;;;;5090113;28;20190;-75